Flight Track Log - Related Links

Times and Time Zones

All times are in EDT time to prevent confusion due to time zone crossing. See the N510SR flight status page for this flight to view local times or setup timezone preferences in your user account.

Time Position Orientation Groundspeed Altitude Reporting Facility
EDT Latitude Longitude Course Direction KTS MPH feet Rate Location/Type
Sun 11:15:54 AM 26.7350 -80.1364 90° East 269 310 7,000  Level Miami Center
Sun 11:16:54 AM 26.7247 -80.0339 96° East 309 356 7,000  Level Miami Center
Sun 11:17:54 AM 26.7181 -79.9569 96° East 287 330 7,000 50 Level Miami Center
Sun 11:18:54 AM 26.7094 -79.8683 96° East 287 330 7,100 50 Climbing Miami Center
Sun 11:19:00 AM 26.6667 -79.5029 90° East  Level FlightAware Approximate
Sun 11:19:54 AM 26.7028 -79.7889 95° East 293 337 7,100  Level Miami Center
Sun 11:20:00 AM 26.6667 -79.4047 90° East  Level FlightAware Approximate
Sun 11:20:54 AM 26.6942 -79.6911 96° East 288 331 7,100  Level Miami Center
Sun 11:21:54 AM 26.6872 -79.6142 96° East 288 331 7,100  Level Miami Center
Sun 11:22:54 AM 26.6786 -79.5164 96° East 288 331 7,100 1,350 Level Miami Center
Sun 11:23:54 AM 26.6739 -79.4328 94° East 294 338 9,800 2,050 Climbing Miami Center
Sun 11:24:54 AM 26.6653 -79.3208 95° East 316 364 11,200 1,500 Climbing Miami Center
Sun 11:25:54 AM 26.6608 -79.2114 93° East 347 399 12,800 1,950 Climbing Miami Center
Sun 11:26:54 AM 26.6544 -79.0881 93° East 380 437 15,100 2,000 Climbing Miami Center
Sun 11:27:54 AM 26.6461 -78.9578 94° East 403 464 16,800 1,650 Climbing Miami Center
Sun 11:28:54 AM 26.6353 -78.8183 95° East 428 493 18,400 1,600 Climbing Miami Center
Sun 11:29:54 AM 26.6289 -78.6786 93° East 444 511 20,000 1,300 Climbing Miami Center
Sun 11:30:54 AM 26.6203 -78.5344 94° East 454 522 21,000 300 Climbing Miami Center
Sun 11:31:54 AM 26.6072 -78.3856 96° East 475 547 20,600 -1,200 Descending Miami Center
Sun 11:32:54 AM 26.5939 -78.2414 96° East 480 552 18,600 -1,950 Descending Miami Center
Sun 11:33:54 AM 26.5847 -78.0994 94° East 472 543 16,700 -1,950 Descending Miami Center
Sun 11:34:54 AM 26.5797 -77.9647 92° East 449 517 14,700 -2,050 Descending Miami Center
Sun 11:35:54 AM 26.5678 -77.8461 96° East 411 473 12,600 -1,900 Descending Miami Center
Sun 11:36:54 AM 26.5581 -77.7392 96° East 378 435 10,900 -1,600 Descending Miami Center
Sun 11:37:54 AM 26.5525 -77.6322 93° East 350 403 9,400 -1,500 Descending Miami Center
Sun 11:38:54 AM 26.5425 -77.5322 96° East 334 384 7,900 -1,150 Descending Miami Center
Sun 11:39:54 AM 26.5347 -77.4278 95° East 317 365 7,100 -800 Descending Miami Center

Login

Don't have an account? Register now (free) for customized features, flight alerts, and more!